Aviation Digital Data Service (ADDS)

Output produced by METARs form (0627 UTC 21 January 2019)
found at http://www.aviationweather.gov/metar/data/
 
Forecast for: COR
Text: TAF COR MMMX 210458Z 2106/2212 33005KT P6SM SKC TX22/2121Z TN08/2112Z
Forecast period: 0600 to 1800 UTC 21 January 2019
Forecast type: FROM: standard forecast or significant change
Winds: from the NNW (330 degrees) at 6 MPH (5 knots; 2.6 m/s)
Visibility: 6 or more miles 10+ km)
Clouds: clear skies
Weather: no significant weather forecast for this period
Text: FM211800 13010KT P6SM SKC
Forecast period: 1800 UTC 21 January 2019 to 0300 UTC 22 January 2019
Forecast type: FROM: standard forecast or significant change
Winds: from the SE (130 degrees) at 12 MPH (10 knots; 5.1 m/s)
Visibility: 6 or more miles 10+ km)
Clouds: clear skies
Weather: no significant weather forecast for this period
Text: FM220300 13005KT 6SM HZ SKC
Forecast period: 0300 to 1200 UTC 22 January 2019
Forecast type: FROM: standard forecast or significant change
Winds: from the SE (130 degrees) at 6 MPH (5 knots; 2.6 m/s)
Visibility: 6 miles (10 km)
Clouds: clear skies
Weather: HZ  (haze)